Flight Track Log - Related Links

Times and Time Zones

All times are in EDT time to prevent confusion due to time zone crossing. See the SWA1535 flight status page for this flight to view local times or setup timezone preferences in your user account.

Time Position Orientation Groundspeed Altitude Reporting Facility
EDT Latitude Longitude Course Direction KTS MPH feet Rate Location/Type
Mon 01:07:19 PM 41.7350 -71.4192 60° Northeast 144 166 1,000  Level Boston Center
Mon 01:07:43 PM 41.7433 -71.3994 60° Northeast 178 205 1,400 2,571 Climbing Boston Center
Mon 01:08:50 PM 41.7406 -71.3300 93° East 207 238 4,900 2,609 Climbing Boston Center
Mon 01:09:15 PM 41.7217 -71.3219 162° South 246 283 5,400 3,176 Climbing Boston Center
Mon 01:10:15 PM 41.6444 -71.3122 175° South 285 328 9,400 3,100 Climbing Boston Center
Mon 01:11:15 PM 41.5736 -71.3025 174° South 290 334 11,600 2,950 Climbing Boston Center
Mon 01:12:15 PM 41.4797 -71.2903 174° South 309 356 15,300 3,200 Climbing Boston Center
Mon 01:13:15 PM 41.4006 -71.3111 191° South 314 361 18,000 2,550 Climbing Boston Center
Mon 01:14:15 PM 41.3181 -71.3869 215° Southwest 320 368 20,400 2,500 Climbing Boston Center
Mon 01:15:15 PM 41.2542 -71.4764 226° Southwest 332 382 23,000 2,550 Climbing Boston Center
Mon 01:16:15 PM 41.2069 -71.5517 230° Southwest 332 382 25,500 3,500 Climbing Boston Center
Mon 01:17:15 PM 41.1450 -71.6353 225° Southwest 316 364 30,000 2,850 Climbing Boston Center
Mon 01:18:15 PM 41.0975 -71.7131 231° Southwest 293 337 31,200 1,000 Climbing Boston Center
Mon 01:19:15 PM 41.0439 -71.7961 229° Southwest 288 331 32,000 1,000 Climbing Boston Center
Mon 01:20:15 PM 40.9819 -71.9039 233° Southwest 312 359 33,200 1,250 Climbing Boston Center
Mon 01:21:15 PM 40.9219 -71.9897 227° Southwest 325 374 34,500 1,250 Climbing Boston Center
Mon 01:22:15 PM 40.8639 -72.0861 231° Southwest 330 380 35,700 1,350 Climbing Boston Center
Mon 01:23:15 PM 40.8036 -72.1742 228° Southwest 330 380 37,200 1,150 Climbing Boston Center
Mon 01:24:15 PM 40.7497 -72.2647 232° Southwest 330 380 38,000 400 Climbing Boston Center
Mon 01:25:15 PM 40.6978 -72.3417 228° Southwest 325 374 38,000  Level Boston Center
Mon 01:26:15 PM 40.6353 -72.4292 227° Southwest 325 374 38,000  Level Boston Center
Mon 01:27:15 PM 40.5769 -72.5194 230° Southwest 325 374 38,000  Level Boston Center
Mon 01:28:15 PM 40.5164 -72.6094 229° Southwest 331 381 38,000  Level Boston Center
Mon 01:29:15 PM 40.4578 -72.6992 229° Southwest 331 381 38,000  Level Boston Center
Mon 01:30:15 PM 40.4014 -72.7889 230° Southwest 331 381 38,000  Level Boston Center
Mon 01:31:15 PM 40.3386 -72.8811 228° Southwest 336 387 38,000  Level Boston Center
Mon 01:32:15 PM 40.2819 -72.9706 230° Southwest 331 381 38,000  Level Boston Center
Mon 01:34:07 PM 40.1758 -73.1369 230° Southwest 317 365 38,000  Level Washington Center
Mon 01:35:07 PM 40.1153 -73.2314 230° Southwest 322 371 38,000  Level Washington Center
Mon 01:36:07 PM 40.0481 -73.3094 222° Southwest 322 371 38,000  Level Washington Center
Mon 01:37:07 PM 39.9808 -73.3903 223° Southwest 327 376 38,000  Level Washington Center
Mon 01:38:07 PM 39.9031 -73.4739 220° Southwest 332 382 38,000  Level Washington Center
Mon 01:39:07 PM 39.8356 -73.5514 221° Southwest 332 382 38,000  Level Washington Center
Mon 01:40:07 PM 39.7681 -73.6264 221° Southwest 332 382 38,000  Level Washington Center
Mon 01:41:07 PM 39.6986 -73.7008 220° Southwest 332 382 38,000  Level Washington Center
Mon 01:42:07 PM 39.6289 -73.7808 221° Southwest 332 382 38,000  Level Washington Center
Mon 01:43:07 PM 39.5614 -73.8581 221° Southwest 332 382 38,000  Level Washington Center
Mon 01:44:07 PM 39.4894 -73.9325 219° Southwest 332 382 38,000  Level Washington Center
Mon 01:45:07 PM 39.4197 -74.0092 220° Southwest 332 382 38,000  Level Washington Center
Mon 01:46:07 PM 39.3581 -74.0778 221° Southwest 332 382 38,000  Level Washington Center
Mon 01:47:07 PM 39.2881 -74.1542 220° Southwest 332 382 38,000  Level Washington Center
Mon 01:48:07 PM 39.2161 -74.2333 220° Southwest 337 388 38,000  Level Washington Center
Mon 01:49:07 PM 39.1461 -74.3097 220° Southwest 337 388 38,000  Level Washington Center
Mon 01:51:07 PM 39.0058 -74.4589 220° Southwest 332 382 38,000  Level Washington Center
Mon 01:52:07 PM 38.9356 -74.5347 220° Southwest 332 382 38,000  Level Washington Center
Mon 01:53:07 PM 38.8653 -74.6106 220° Southwest 332 382 38,000  Level Washington Center
Mon 01:54:07 PM 38.7950 -74.6861 220° Southwest 337 388 38,000  Level Washington Center
Mon 01:55:07 PM 38.7247 -74.7642 221° Southwest 332 382 38,000  Level Washington Center
Mon 01:56:07 PM 38.6564 -74.8367 220° Southwest 332 382 38,000  Level Washington Center
Mon 01:57:07 PM 38.5861 -74.9092 219° Southwest 332 382 38,000  Level Washington Center
Mon 01:58:07 PM 38.5156 -74.9814 219° Southwest 332 382 38,000  Level Washington Center
Mon 01:59:07 PM 38.4450 -75.0561 220° Southwest 332 382 38,000  Level Washington Center
Mon 02:00:07 PM 38.3744 -75.1361 222° Southwest 337 388 38,000  Level Washington Center
Mon 02:01:07 PM 38.3039 -75.2108 220° Southwest 337 388 38,000  Level Washington Center
Mon 02:02:07 PM 38.2311 -75.2878 220° Southwest 337 388 38,000  Level Washington Center
Mon 02:03:07 PM 38.1583 -75.3619 219° Southwest 337 388 38,000  Level Washington Center
Mon 02:04:07 PM 38.0792 -75.4256 212° Southwest 337 388 38,000  Level Washington Center
Mon 02:05:07 PM 38.0019 -75.4864 212° Southwest 337 388 38,000  Level Washington Center
Mon 02:06:07 PM 37.9269 -75.5550 216° Southwest 337 388 38,000  Level Washington Center
Mon 02:07:07 PM 37.8478 -75.6156 211° Southwest 337 388 38,000  Level Washington Center
Mon 02:08:07 PM 37.7706 -75.6811 214° Southwest 332 382 38,000  Level Washington Center
Mon 02:09:07 PM 37.6850 -75.7519 213° Southwest 332 382 38,000  Level Washington Center
Mon 02:10:07 PM 37.6036 -75.8119 210° Southwest 332 382 38,000  Level Washington Center
Mon 02:11:07 PM 37.5264 -75.8772 214° Southwest 338 389 38,000  Level Washington Center
Mon 02:12:07 PM 37.4489 -75.9397 213° Southwest 338 389 38,000  Level Washington Center
Mon 02:13:07 PM 37.3717 -76.0022 213° Southwest 338 389 38,000  Level Washington Center
Mon 02:14:07 PM 37.2942 -76.0644 213° Southwest 338 389 38,000  Level Washington Center
Mon 02:15:07 PM 37.2167 -76.1264 212° Southwest 338 389 38,000  Level Washington Center
Mon 02:16:07 PM 37.1414 -76.1781 209° Southwest 338 389 38,000  Level Washington Center
Mon 02:17:07 PM 37.0639 -76.2425 214° Southwest 338 389 38,000  Level Washington Center
Mon 02:18:07 PM 36.9842 -76.3044 212° Southwest 338 389 38,000  Level Washington Center
Mon 02:19:07 PM 36.9067 -76.3686 214° Southwest 338 389 38,000  Level Washington Center
Mon 02:20:07 PM 36.8269 -76.4275 211° Southwest 338 389 38,000  Level Washington Center
Mon 02:21:07 PM 36.7494 -76.4914 213° Southwest 338 389 38,000  Level Washington Center
Mon 02:22:07 PM 36.6653 -76.5631 214° Southwest 338 389 38,000  Level Washington Center
Mon 02:23:07 PM 36.5878 -76.6214 211° Southwest 338 389 38,000  Level Washington Center
Mon 02:24:07 PM 36.5058 -76.6825 211° Southwest 338 389 38,000  Level Washington Center
Mon 02:25:07 PM 36.4300 -76.7433 213° Southwest 338 389 38,000  Level Washington Center
Mon 02:26:07 PM 36.3503 -76.8067 213° Southwest 338 389 38,000  Level Washington Center
Mon 02:27:07 PM 36.2725 -76.8672 212° Southwest 338 389 38,000  Level Washington Center
Mon 02:28:07 PM 36.1925 -76.9303 212° Southwest 343 395 38,000  Level Washington Center
Mon 02:29:07 PM 36.1125 -76.9933 212° Southwest 343 395 38,000  Level Washington Center
Mon 02:30:07 PM 36.0303 -77.0508 209° Southwest 343 395 38,000  Level Washington Center
Mon 02:31:07 PM 35.9503 -77.1161 213° Southwest 343 395 38,000  Level Washington Center
Mon 02:32:07 PM 35.8808 -77.1686 211° Southwest 343 395 38,000  Level Washington Center
Mon 02:33:07 PM 35.8028 -77.2311 213° Southwest 343 395 38,000  Level Washington Center
Mon 02:34:07 PM 35.7206 -77.2933 212° Southwest 343 395 38,000  Level Washington Center
Mon 02:35:07 PM 35.6425 -77.3531 212° Southwest 343 395 38,000  Level Washington Center
Mon 02:36:07 PM 35.5581 -77.4175 212° Southwest 343 395 38,000  Level Washington Center
Mon 02:37:07 PM 35.4756 -77.4769 210° Southwest 343 395 38,000  Level Washington Center
Mon 02:38:07 PM 35.3933 -77.5386 211° Southwest 348 400 38,000  Level Washington Center
Mon 02:39:07 PM 35.3147 -77.6156 219° Southwest 354 407 38,000  Level Washington Center
Mon 02:40:07 PM 35.2383 -77.6925 219° Southwest 359 413 38,000  Level Washington Center
Mon 02:41:07 PM 35.1661 -77.7694 221° Southwest 358 412 38,000  Level Washington Center
Mon 02:42:07 PM 35.0917 -77.8486 221° Southwest 358 412 38,000  Level Washington Center
Mon 02:43:07 PM 35.0150 -77.9250 219° Southwest 358 412 38,000  Level Washington Center
Mon 02:44:07 PM 34.9383 -78.0042 220° Southwest 358 412 38,000  Level Washington Center
Mon 02:45:07 PM 34.8636 -78.0803 220° Southwest 358 412 38,000  Level Washington Center
Mon 02:46:07 PM 34.7825 -78.1689 222° Southwest 358 412 38,000  Level Washington Center
Mon 02:47:07 PM 34.7056 -78.2497 221° Southwest 364 419 38,000  Level Washington Center
Mon 02:48:07 PM 34.6289 -78.3256 219° Southwest 364 419 38,000  Level Washington Center
Mon 02:49:07 PM 34.5711 -78.3867 221° Southwest 364 419 38,000  Level Washington Center
Mon 02:49:56 PM 34.4947 -78.4539 216° Southwest 367 422 38,000  Level Jacksonville Center
Mon 02:50:56 PM 34.4225 -78.5356 223° Southwest 367 422 38,000  Level Jacksonville Center
Mon 02:51:56 PM 34.3439 -78.6125 219° Southwest 367 422 38,000  Level Jacksonville Center
Mon 02:52:56 PM 34.2672 -78.6917 220° Southwest 367 422 38,000  Level Jacksonville Center
Mon 02:53:56 PM 34.1864 -78.7733 220° Southwest 367 422 38,000  Level Jacksonville Center
Mon 02:54:56 PM 34.1075 -78.8522 220° Southwest 372 428 38,000  Level Jacksonville Center
Mon 02:55:56 PM 34.0247 -78.9336 219° Southwest 378 435 38,000  Level Jacksonville Center
Mon 02:56:56 PM 33.9436 -79.0125 219° Southwest 378 435 38,000  Level Jacksonville Center
Mon 02:57:56 PM 33.8628 -79.0936 220° Southwest 383 441 38,000  Level Jacksonville Center
Mon 02:58:56 PM 33.7817 -79.1719 219° Southwest 383 441 38,000  Level Jacksonville Center
Mon 02:59:56 PM 33.6944 -79.2581 219° Southwest 388 447 38,000  Level Jacksonville Center
Mon 03:00:56 PM 33.6131 -79.3364 219° Southwest 381 438 38,000  Level Jacksonville Center
Mon 03:01:56 PM 33.5319 -79.4192 220° Southwest 381 438 38,000  Level Jacksonville Center
Mon 03:02:56 PM 33.4506 -79.4972 219° Southwest 388 447 38,000  Level Jacksonville Center
Mon 03:03:56 PM 33.3714 -79.5747 219° Southwest 388 447 38,000  Level Jacksonville Center
Mon 03:04:57 PM 33.2878 -79.6550 219° Southwest 388 447 38,000  Level Jacksonville Center
Mon 03:05:56 PM 33.2044 -79.7372 220° Southwest 388 447 38,000  Level Jacksonville Center
Mon 03:06:56 PM 33.1208 -79.8197 220° Southwest 388 447 38,000  Level Jacksonville Center
Mon 03:07:56 PM 33.0372 -79.8994 219° Southwest 388 447 38,000  Level Jacksonville Center
Mon 03:08:56 PM 32.9678 -79.9661 219° Southwest 388 447 38,000  Level Jacksonville Center
Mon 03:09:56 PM 32.8736 -80.0531 218° Southwest 388 447 38,000  Level Jacksonville Center
Mon 03:10:56 PM 32.7811 -80.1203 211° Southwest 393 452 38,000  Level Jacksonville Center
Mon 03:11:57 PM 32.6867 -80.1900 212° Southwest 393 452 38,000  Level Jacksonville Center
Mon 03:12:56 PM 32.5964 -80.2592 213° Southwest 398 458 38,000  Level Jacksonville Center
Mon 03:13:56 PM 32.5017 -80.3258 211° Southwest 398 458 38,000  Level Jacksonville Center
Mon 03:14:56 PM 32.4072 -80.3975 213° Southwest 403 464 38,000  Level Jacksonville Center
Mon 03:15:56 PM 32.3144 -80.4664 212° Southwest 403 464 38,000  Level Jacksonville Center
Mon 03:16:56 PM 32.2197 -80.5328 211° Southwest 403 464 38,000  Level Jacksonville Center
Mon 03:17:56 PM 32.1189 -80.6089 213° Southwest 398 458 38,000  Level Jacksonville Center
Mon 03:18:56 PM 32.0342 -80.6697 211° Southwest 398 458 38,000  Level Jacksonville Center
Mon 03:19:56 PM 31.9292 -80.7433 211° Southwest 398 458 38,000  Level Jacksonville Center
Mon 03:20:56 PM 31.8342 -80.8142 212° Southwest 398 458 38,000  Level Jacksonville Center
Mon 03:21:56 PM 31.7497 -80.8744 211° Southwest 398 458 38,000  Level Jacksonville Center
Mon 03:22:56 PM 31.6464 -80.9475 211° Southwest 398 458 38,000  Level Jacksonville Center
Mon 03:23:56 PM 31.5514 -81.0153 211° Southwest 397 457 38,000  Level Jacksonville Center
Mon 03:24:56 PM 31.4564 -81.0831 211° Southwest 397 457 38,000  Level Jacksonville Center
Mon 03:25:56 PM 31.3611 -81.1506 211° Southwest 402 463 38,000  Level Jacksonville Center
Mon 03:26:56 PM 31.2467 -81.1744 190° South 402 463 38,000  Level Jacksonville Center
Mon 03:27:56 PM 31.1339 -81.1717 179° South 407 468 38,000  Level Jacksonville Center
Mon 03:28:56 PM 31.0169 -81.1667 178° South 415 478 38,000  Level Jacksonville Center
Mon 03:29:56 PM 30.8978 -81.1617 178° South 420 483 38,000 -450 Level Jacksonville Center
Mon 03:30:56 PM 30.7831 -81.1589 179° South 425 489 37,100 -1,750 Descending Jacksonville Center
Mon 03:31:56 PM 30.6658 -81.1536 178° South 420 483 34,500 -1,550 Descending Jacksonville Center
Mon 03:32:56 PM 30.5553 -81.1508 179° South 420 483 34,000 -250 Descending Jacksonville Center
Mon 03:33:56 PM 30.4383 -81.1506 180° South 415 478 34,000  Level Jacksonville Center
Mon 03:34:56 PM 30.3256 -81.1456 178° South 415 478 34,000  Level Jacksonville Center
Mon 03:35:56 PM 30.2106 -81.1403 178° South 420 483 34,000 -700 Level Jacksonville Center
Mon 03:36:56 PM 30.0958 -81.1375 179° South 420 483 32,600 -1,400 Descending Jacksonville Center
Mon 03:37:56 PM 29.9831 -81.1347 179° South 420 483 31,200 -1,100 Descending Jacksonville Center
Mon 03:38:56 PM 29.8578 -81.1300 178° South 431 496 30,400 -1,100 Descending Jacksonville Center
Mon 03:39:56 PM 29.7367 -81.1272 179° South 437 503 29,000 -2,250 Descending Jacksonville Center
Mon 03:40:56 PM 29.6114 -81.1272 180° South 443 510 25,900 -2,900 Descending Jacksonville Center
Mon 03:41:56 PM 29.4922 -81.1222 178° South 443 510 23,200 -2,550 Descending Jacksonville Center
Mon 03:42:56 PM 29.3814 -81.1169 178° South 425 489 20,800 -2,500 Descending Jacksonville Center
Mon 03:43:56 PM 29.2667 -81.1167 180° South 415 478 18,200 -2,550 Descending Jacksonville Center
Mon 03:44:56 PM 29.1683 -81.1042 174° South 410 472 15,700 -2,600 Descending Jacksonville Center
Mon 03:45:56 PM 29.0597 -81.0967 177° South 400 460 13,000 -1,800 Descending Jacksonville Center
Mon 03:46:56 PM 28.9572 -81.0819 173° South 390 449 12,100 -641 Descending Jacksonville Center
Mon 03:47:39 PM 28.8667 -81.0667 172° South 379 436 11,900 -661 Descending Orlando TRACON
Mon 03:48:45 PM 28.7667 -81.0833 188° South 319 367 10,900 -1,050 Descending Orlando TRACON
Mon 03:49:39 PM 28.7000 -81.1000 192° South 299 344 9,800 -1,316 Descending Orlando TRACON
Mon 03:50:39 PM 28.6167 -81.1333 199° South 290 334 8,400 -1,400 Descending Orlando TRACON
Mon 03:51:39 PM 28.5500 -81.1500 192° South 273 314 7,000 -1,263 Descending Orlando TRACON
Mon 03:52:33 PM 28.4833 -81.2000 213° Southwest 272 313 6,000 -1,053 Descending Orlando TRACON
Mon 03:53:33 PM 28.4167 -81.2000 180° South 264 304 5,000 -700 Descending Orlando TRACON
Mon 03:54:33 PM 28.3500 -81.2000 180° South 233 268 4,600 -750 Descending Orlando TRACON
Mon 03:55:33 PM 28.2833 -81.2167 192° South 210 242 3,500 -1,250 Descending Orlando TRACON
Mon 03:56:33 PM 28.3167 -81.2667 307° West 192 221 2,100 -1,143 Descending Orlando TRACON
Mon 03:57:39 PM 28.3667 -81.2833 344° North 139 160 1,100 -810 Descending Orlando TRACON
Mon 03:58:39 PM 28.4000 -81.2833 360° North 126 145 400 -700 Descending Orlando TRACON
Mon 04:00:00 PM 28.4167 -81.3000 336° Northwest  Level FlightAware Approximate
Mon 04:07:00 PM 28.4294 -81.3090 336° Northwest  Level Estimated
Mon 04:08:00 PM 28.4294 -81.3090 336° Northwest  Level Estimated
Mon 04:09:00 PM 28.4294 -81.3090 336° Northwest  Level Estimated
Mon 04:10:00 PM 28.4294 -81.3090 336° Northwest  Level Estimated

Login

Don't have an account? Register now (free) for customized features, flight alerts, and more!